createdAt,value
2023-01-13T00:00:53.127Z,74.24
2023-01-13T00:03:56.431Z,74.46
2023-01-13T00:06:58.789Z,73.69
2023-01-13T00:10:01.154Z,73.42
2023-01-13T00:13:04.484Z,73.63
2023-01-13T00:16:08.709Z,72.75
2023-01-13T00:19:11.020Z,73.09
2023-01-13T00:22:13.345Z,73.08
2023-01-13T00:25:15.700Z,72.75
2023-01-13T00:28:18.099Z,73.02
2023-01-13T00:31:21.467Z,73.62
2023-01-13T00:34:24.738Z,73.45
2023-01-13T00:37:27.103Z,73.21
2023-01-13T00:40:29.385Z,73.34
2023-01-13T00:43:32.854Z,73.14
2023-01-13T00:46:35.284Z,72.26
2023-01-13T00:49:37.586Z,73.69
2023-01-13T00:52:42.029Z,73.57
2023-01-13T00:55:44.629Z,73.33
2023-01-13T00:58:47.958Z,73.41
2023-01-13T01:01:50.449Z,72.21
2023-01-13T01:04:52.920Z,72.67
2023-01-13T01:07:55.243Z,72.37
2023-01-13T01:11:08.952Z,73.19
2023-01-13T01:14:13.128Z,73.51
2023-01-13T01:17:15.382Z,73.51
2023-01-13T01:20:17.849Z,73.18
2023-01-13T01:23:20.119Z,73.57
2023-01-13T01:26:26.924Z,73.88
2023-01-13T01:29:29.290Z,73.27
2023-01-13T01:32:34.194Z,73.47
2023-01-13T01:35:40.052Z,73.46
2023-01-13T01:38:42.649Z,73.58
2023-01-13T01:42:04.913Z,73.01
2023-01-13T01:45:24.166Z,73.36
2023-01-13T01:48:27.671Z,72.86
2023-01-13T01:51:32.147Z,72.92
2023-01-13T01:54:53.178Z,72.72
2023-01-13T01:58:00.155Z,73.54
2023-01-13T02:01:04.452Z,74.30
2023-01-13T02:04:12.737Z,74.10
2023-01-13T02:07:15.143Z,73.69
2023-01-13T02:10:20.568Z,73.89
2023-01-13T02:13:23.134Z,73.08
2023-01-13T02:16:25.488Z,72.85
2023-01-13T02:20:09.585Z,72.94
2023-01-13T02:23:58.848Z,73.34
2023-01-13T02:27:10.315Z,73.18
2023-01-13T02:30:37.260Z,72.87
2023-01-13T02:33:46.783Z,73.34
2023-01-13T02:36:54.401Z,73.08
2023-01-13T02:40:24.854Z,73.64
2023-01-13T02:43:55.544Z,72.74
2023-01-13T02:47:01.626Z,73.25
2023-01-13T02:50:10.625Z,73.05
2023-01-13T02:53:34.648Z,73.67
2023-01-13T02:56:40.769Z,73.58
2023-01-13T02:59:43.286Z,73.36
2023-01-13T03:02:45.758Z,72.83
2023-01-13T03:05:51.998Z,73.65
2023-01-13T03:09:02.525Z,73.50
2023-01-13T03:12:19.498Z,72.71
2023-01-13T03:15:37.163Z,72.69
2023-01-13T03:18:48.515Z,73.49
2023-01-13T03:22:23.916Z,73.26
2023-01-13T03:25:57.196Z,73.07
2023-01-13T03:29:30.889Z,72.95
2023-01-13T03:32:34.640Z,73.29
2023-01-13T03:35:40.941Z,73.43
2023-01-13T03:38:51.112Z,73.60
2023-01-13T03:41:57.661Z,73.40
2023-01-13T03:45:10.344Z,73.24
2023-01-13T03:48:16.984Z,73.15
2023-01-13T03:51:19.803Z,73.10
2023-01-13T03:54:23.438Z,72.81
2023-01-13T03:57:30.067Z,72.98
2023-01-13T04:01:00.441Z,73.91
2023-01-13T04:04:08.530Z,73.08
2023-01-13T04:07:27.866Z,73.31
2023-01-13T04:10:45.591Z,73.68
2023-01-13T04:13:48.953Z,73.48
2023-01-13T04:16:51.198Z,73.80
2023-01-13T04:19:53.514Z,73.58
2023-01-13T04:22:55.973Z,73.62
2023-01-13T04:25:58.574Z,73.86
2023-01-13T04:29:00.918Z,74.50
2023-01-13T04:32:03.752Z,73.96
2023-01-13T04:35:08.520Z,73.79
2023-01-13T04:38:17.662Z,74.13
2023-01-13T04:41:20.067Z,73.81
2023-01-13T04:44:22.330Z,73.59
2023-01-13T04:47:24.658Z,74.23
2023-01-13T04:50:27.090Z,74.24
2023-01-13T04:53:29.398Z,73.87
2023-01-13T04:56:32.299Z,74.06
2023-01-13T04:59:34.747Z,73.68
2023-01-13T05:02:38.190Z,74.14
2023-01-13T05:05:40.590Z,73.84
2023-01-13T05:08:42.979Z,73.59
2023-01-13T05:12:03.996Z,73.14
2023-01-13T05:15:25.508Z,73.60
2023-01-13T05:18:30.121Z,73.71
2023-01-13T05:21:51.002Z,73.77
2023-01-13T05:25:12.144Z,73.56
2023-01-13T05:28:17.420Z,73.58
2023-01-13T05:31:20.461Z,72.90
2023-01-13T05:34:22.986Z,73.70
2023-01-13T05:37:29.715Z,72.58
2023-01-13T05:40:50.953Z,71.99
2023-01-13T05:43:53.400Z,72.49
2023-01-13T05:47:04.435Z,72.70
2023-01-13T05:50:10.483Z,73.07
2023-01-13T05:53:13.203Z,73.07
2023-01-13T05:57:31.283Z,72.91
2023-01-13T06:00:47.885Z,73.14
2023-01-13T06:03:54.713Z,73.35
2023-01-13T06:07:13.489Z,72.63
2023-01-13T06:10:16.322Z,72.22
2023-01-13T06:13:41.853Z,72.13
2023-01-13T06:16:45.713Z,72.61
2023-01-13T06:25:29.139Z,71.81
2023-01-13T06:33:44.612Z,72.23
2023-01-13T06:36:50.418Z,72.70
2023-01-13T06:40:11.063Z,72.95
2023-01-13T06:43:17.208Z,73.13
2023-01-13T06:46:22.803Z,73.65
2023-01-13T06:49:25.190Z,74.43
2023-01-13T06:52:33.358Z,73.52
2023-01-13T06:55:40.880Z,73.64
2023-01-13T06:58:43.518Z,73.48
2023-01-13T07:01:53.730Z,73.54
2023-01-13T07:05:31.153Z,73.53
2023-01-13T07:08:51.736Z,74.14
2023-01-13T07:16:49.925Z,73.78
2023-01-13T07:19:52.789Z,72.61
2023-01-13T07:22:56.557Z,73.21
2023-01-13T07:26:00.159Z,72.85
2023-01-13T07:29:05.810Z,73.67
2023-01-13T07:32:08.346Z,73.52
2023-01-13T07:35:10.732Z,73.54
2023-01-13T07:38:13.422Z,72.53
2023-01-13T07:41:34.687Z,72.15
2023-01-13T07:44:42.471Z,72.03
2023-01-13T07:47:44.902Z,72.32
2023-01-13T07:50:49.917Z,72.59
2023-01-13T07:54:11.937Z,72.42
2023-01-13T07:57:24.401Z,72.52
2023-01-13T08:00:27.027Z,72.43
2023-01-13T08:03:33.286Z,73.36
2023-01-13T08:06:47.663Z,74.28
2023-01-13T08:09:56.387Z,73.48
2023-01-13T08:13:17.707Z,72.69
2023-01-13T08:16:21.341Z,73.16
2023-01-13T08:19:31.695Z,72.72
2023-01-13T08:26:16.885Z,72.50
2023-01-13T08:29:21.131Z,72.69
2023-01-13T08:32:23.524Z,72.58
2023-01-13T08:35:32.652Z,72.38
2023-01-13T08:42:13.298Z,73.14
2023-01-13T08:45:28.536Z,71.45
2023-01-13T08:48:35.470Z,71.30
2023-01-13T08:51:44.499Z,71.51
2023-01-13T08:54:51.164Z,71.14
2023-01-13T08:58:00.585Z,71.63
2023-01-13T09:01:14.550Z,70.07
2023-01-13T09:04:19.883Z,70.17
2023-01-13T09:07:27.282Z,70.45
2023-01-13T09:10:31.814Z,70.67
2023-01-13T09:13:34.139Z,70.79
2023-01-13T09:16:36.357Z,73.04
2023-01-13T09:19:40.177Z,71.56
2023-01-13T09:22:52.550Z,70.83
2023-01-13T09:25:55.162Z,70.52
2023-01-13T09:28:57.429Z,70.41
2023-01-13T09:32:02.165Z,70.65
2023-01-13T09:35:15.699Z,71.10
2023-01-13T09:38:19.351Z,72.21
2023-01-13T09:41:48.299Z,70.01
2023-01-13T09:44:57.646Z,71.09
2023-01-13T09:52:26.959Z,71.71
2023-01-13T09:55:35.415Z,71.58
2023-01-13T09:58:56.194Z,70.87
2023-01-13T10:02:22.813Z,70.75
2023-01-13T10:05:39.363Z,71.49
2023-01-13T10:08:45.497Z,71.82
2023-01-13T10:12:19.431Z,71.80
2023-01-13T10:15:27.557Z,71.90
2023-01-13T10:19:10.269Z,72.23
2023-01-13T10:44:22.823Z,71.46
2023-01-13T10:47:36.480Z,70.64
2023-01-13T10:50:39.475Z,71.07
2023-01-13T10:53:46.984Z,70.98
2023-01-13T10:56:50.625Z,71.78
2023-01-13T10:59:55.004Z,71.55
2023-01-13T11:03:20.133Z,70.65
2023-01-13T11:06:48.280Z,71.54
2023-01-13T11:10:09.733Z,71.18
2023-01-13T11:18:41.757Z,71.94
2023-01-13T11:22:09.076Z,73.09
2023-01-13T11:25:20.687Z,73.58
2023-01-13T11:28:49.258Z,73.08
2023-01-13T11:31:56.466Z,73.07
2023-01-13T11:35:21.523Z,72.76
2023-01-13T11:38:56.675Z,72.54
2023-01-13T11:46:51.060Z,73.08
2023-01-13T11:49:53.601Z,73.30
2023-01-13T11:53:42.002Z,73.34
2023-01-13T11:57:25.567Z,72.89
2023-01-13T12:00:47.529Z,72.12
2023-01-13T12:04:13.695Z,72.45
2023-01-13T12:07:51.128Z,72.12
2023-01-13T12:11:28.484Z,73.66
2023-01-13T12:14:52.722Z,72.58
2023-01-13T12:18:13.995Z,73.27
2023-01-13T12:21:36.759Z,73.98
2023-01-13T12:25:01.609Z,74.02
2023-01-13T12:28:33.084Z,73.47
2023-01-13T12:31:41.979Z,72.83
2023-01-13T12:35:30.051Z,73.23
2023-01-13T12:43:56.811Z,72.25
2023-01-13T12:47:09.585Z,72.52
2023-01-13T12:50:27.101Z,72.61
2023-01-13T12:53:36.351Z,71.48
2023-01-13T12:56:42.534Z,71.61
2023-01-13T13:00:05.155Z,71.09
2023-01-13T13:03:19.310Z,72.33
2023-01-13T13:06:29.719Z,72.11
2023-01-13T13:09:38.647Z,72.84
2023-01-13T13:13:04.201Z,73.33
2023-01-13T13:16:44.018Z,72.64
2023-01-13T13:20:22.094Z,73.06
2023-01-13T13:23:54.595Z,72.60
2023-01-13T13:26:57.002Z,72.52
2023-01-13T13:30:27.889Z,72.86
2023-01-13T13:34:06.951Z,73.50
2023-01-13T13:38:03.221Z,73.54
2023-01-13T13:41:39.625Z,74.11
2023-01-13T13:45:25.839Z,74.23
2023-01-13T13:48:31.176Z,74.35
2023-01-13T13:52:02.567Z,73.96
2023-01-13T13:55:19.999Z,73.34
2023-01-13T13:58:23.582Z,73.53
2023-01-13T14:01:39.674Z,73.72
2023-01-13T14:05:13.034Z,73.16
2023-01-13T14:08:26.163Z,73.66
2023-01-13T14:11:33.084Z,73.59
2023-01-13T14:14:35.572Z,74.12
2023-01-13T14:17:38.999Z,74.49
2023-01-13T14:20:42.922Z,73.95
2023-01-13T14:24:15.800Z,74.58
2023-01-13T14:27:19.620Z,74.95
2023-01-13T14:30:23.520Z,75.83
2023-01-13T14:33:40.870Z,75.52
2023-01-13T14:36:44.635Z,74.72
2023-01-13T14:39:47.321Z,74.43
2023-01-13T14:43:04.595Z,75.29
2023-01-13T14:46:15.208Z,75.50
2023-01-13T14:50:01.160Z,75.61
2023-01-13T14:53:05.418Z,73.29
2023-01-13T14:56:56.118Z,74.16
2023-01-13T15:00:22.323Z,74.05
2023-01-13T15:03:24.663Z,74.21
2023-01-13T15:06:34.844Z,74.42
2023-01-13T15:09:41.752Z,74.15
2023-01-13T15:12:47.208Z,73.20
2023-01-13T15:15:56.695Z,73.29
2023-01-13T15:19:00.093Z,72.94
2023-01-13T15:22:09.864Z,72.87
2023-01-13T15:28:53.962Z,74.44
2023-01-13T15:31:56.526Z,74.42
2023-01-13T15:35:25.405Z,75.33
2023-01-13T15:42:34.928Z,74.95
2023-01-13T15:45:56.496Z,76.04
2023-01-13T15:49:02.087Z,75.82
2023-01-13T15:52:12.673Z,75.21
2023-01-13T15:55:15.271Z,75.66
2023-01-13T15:58:21.142Z,75.50
2023-01-13T16:01:26.117Z,75.99
2023-01-13T16:04:37.966Z,76.71
2023-01-13T16:07:43.544Z,76.56
2023-01-13T16:10:50.782Z,75.97
2023-01-13T16:14:00.213Z,75.88
2023-01-13T16:17:16.908Z,76.11
2023-01-13T16:20:19.571Z,76.20
2023-01-13T16:23:23.018Z,75.73
2023-01-13T16:26:27.988Z,75.89
2023-01-13T16:29:30.286Z,76.20
2023-01-13T16:32:32.674Z,75.65
2023-01-13T16:35:35.456Z,75.51
2023-01-13T16:38:57.833Z,75.08
2023-01-13T16:42:00.254Z,75.32
2023-01-13T16:45:08.384Z,76.10
2023-01-13T16:48:19.510Z,75.72
2023-01-13T16:51:22.877Z,75.56
2023-01-13T16:54:25.201Z,76.01
2023-01-13T16:57:27.537Z,75.77
2023-01-13T17:00:29.805Z,75.54
2023-01-13T17:03:36.042Z,75.50
2023-01-13T17:06:58.014Z,75.18
2023-01-13T17:10:00.338Z,74.84
2023-01-13T17:13:14.710Z,75.43
2023-01-13T17:16:22.698Z,74.90
2023-01-13T17:19:25.819Z,75.22
2023-01-13T17:22:28.174Z,75.04
2023-01-13T17:25:30.771Z,75.79
2023-01-13T17:28:33.241Z,76.14
2023-01-13T17:31:36.419Z,76.30
2023-01-13T17:34:40.231Z,76.31
2023-01-13T17:37:42.565Z,76.43
2023-01-13T17:40:45.841Z,76.03
2023-01-13T17:43:48.210Z,76.41
2023-01-13T17:46:50.740Z,75.73
2023-01-13T17:49:53.227Z,75.44
2023-01-13T17:52:55.588Z,75.77
2023-01-13T17:55:58.039Z,75.21
2023-01-13T17:59:00.311Z,75.36
2023-01-13T18:02:03.097Z,74.93
2023-01-13T18:05:05.784Z,74.90
2023-01-13T18:08:08.946Z,74.94
2023-01-13T18:11:11.456Z,74.84
2023-01-13T18:14:13.845Z,74.77
2023-01-13T18:17:17.041Z,75.29
2023-01-13T18:20:38.061Z,74.51
2023-01-13T18:23:58.971Z,74.82
2023-01-13T18:27:23.028Z,74.76
2023-01-13T18:30:25.691Z,74.16
2023-01-13T18:33:28.027Z,74.46
2023-01-13T18:36:30.344Z,74.56
2023-01-13T18:39:32.882Z,74.36
2023-01-13T18:42:51.515Z,74.65
2023-01-13T18:45:53.987Z,74.46
2023-01-13T18:48:56.412Z,74.44
2023-01-13T18:51:58.789Z,74.48
2023-01-13T18:55:01.119Z,73.97
2023-01-13T18:58:03.799Z,74.37
2023-01-13T19:01:06.945Z,73.91
2023-01-13T19:04:15.827Z,73.86
2023-01-13T19:07:23.618Z,74.39
2023-01-13T19:10:28.036Z,74.96
2023-01-13T19:13:30.609Z,75.13
2023-01-13T19:16:32.902Z,75.06
2023-01-13T19:19:43.898Z,75.64
2023-01-13T19:22:53.785Z,75.14
2023-01-13T19:26:08.872Z,74.84
2023-01-13T19:29:11.278Z,75.47
2023-01-13T19:32:13.830Z,74.87
2023-01-13T19:35:18.164Z,74.90
2023-01-13T19:38:20.836Z,74.94
2023-01-13T19:41:41.693Z,75.03
2023-01-13T19:45:02.582Z,74.91
2023-01-13T19:48:07.421Z,74.64
2023-01-13T19:51:10.575Z,74.97
2023-01-13T19:54:12.954Z,74.45
2023-01-13T19:57:15.755Z,74.75
2023-01-13T20:00:20.827Z,75.11
2023-01-13T20:03:25.955Z,75.13
2023-01-13T20:06:28.306Z,74.38
2023-01-13T20:09:31.171Z,74.72
2023-01-13T20:12:33.618Z,74.52
2023-01-13T20:15:38.056Z,74.52
2023-01-13T20:18:40.571Z,74.67
2023-01-13T20:21:43.257Z,74.31
2023-01-13T20:24:45.626Z,74.35
2023-01-13T20:27:48.316Z,73.64
2023-01-13T20:30:50.880Z,73.86
2023-01-13T20:33:53.248Z,74.14
2023-01-13T20:36:55.615Z,74.46
2023-01-13T20:40:01.490Z,74.62
2023-01-13T20:43:04.318Z,74.62
2023-01-13T20:46:06.595Z,74.04
2023-01-13T20:49:12.480Z,74.98
2023-01-13T20:52:14.752Z,74.84
2023-01-13T20:55:17.115Z,74.85
2023-01-13T20:58:19.543Z,74.99
2023-01-13T21:01:22.340Z,75.07
2023-01-13T21:04:24.943Z,75.18
2023-01-13T21:07:28.410Z,76.12
2023-01-13T21:10:30.759Z,76.21
2023-01-13T21:13:51.604Z,76.03
2023-01-13T21:16:53.902Z,76.05
2023-01-13T21:19:56.564Z,75.90
2023-01-13T21:22:59.619Z,75.93
2023-01-13T21:26:01.974Z,76.27
2023-01-13T21:29:04.511Z,76.55
2023-01-13T21:32:06.921Z,76.66
2023-01-13T21:35:09.543Z,76.76
2023-01-13T21:38:12.254Z,76.23
2023-01-13T21:41:15.153Z,76.38
2023-01-13T21:44:38.555Z,76.17
2023-01-13T21:47:49.848Z,76.39
2023-01-13T21:50:52.251Z,77.22
2023-01-13T21:53:55.296Z,76.71
2023-01-13T21:56:57.610Z,77.39
2023-01-13T21:59:59.985Z,77.46
2023-01-13T22:03:04.402Z,76.51
2023-01-13T22:06:06.903Z,77.04
2023-01-13T22:09:09.144Z,76.54
2023-01-13T22:12:11.558Z,76.89
2023-01-13T22:15:15.679Z,77.07
2023-01-13T22:18:20.993Z,77.67
2023-01-13T22:21:23.299Z,77.91
2023-01-13T22:24:25.766Z,77.98
2023-01-13T22:27:29.216Z,78.21
2023-01-13T22:30:32.710Z,78.35
2023-01-13T22:33:35.074Z,77.65
2023-01-13T22:36:37.471Z,77.65
2023-01-13T22:39:39.795Z,77.60
2023-01-13T22:42:42.995Z,77.26
2023-01-13T22:45:45.427Z,77.34
2023-01-13T22:48:48.472Z,78.91
2023-01-13T22:51:50.936Z,78.36
2023-01-13T22:54:53.269Z,77.83
2023-01-13T22:57:55.587Z,77.30
2023-01-13T23:01:08.447Z,77.54
2023-01-13T23:04:13.287Z,77.44
2023-01-13T23:07:15.670Z,77.32
2023-01-13T23:10:18.161Z,77.26
2023-01-13T23:13:20.446Z,77.60
2023-01-13T23:16:22.937Z,77.54
2023-01-13T23:19:25.299Z,77.56
2023-01-13T23:22:28.013Z,77.16
2023-01-13T23:25:30.257Z,77.00
2023-01-13T23:28:33.470Z,77.48
2023-01-13T23:31:35.914Z,77.63
2023-01-13T23:34:38.849Z,77.93
2023-01-13T23:37:42.032Z,78.09
2023-01-13T23:40:45.421Z,77.86
2023-01-13T23:43:52.690Z,78.12
2023-01-13T23:46:55.041Z,78.18
2023-01-13T23:49:57.978Z,78.15
2023-01-13T23:53:00.303Z,78.20
2023-01-13T23:56:04.685Z,77.67
2023-01-13T23:59:08.076Z,77.44
